Time;durP1;ratioP1;P1;durP2;ratioP2;P2;SDS_P1;SDS_P2;PMS_P1;PMS_P2;Temp;Humidity;BMP_temperature;BMP_pressure;BME280_temperature;BME280_humidity;BME280_pressure;Samples;Min_cycle;Max_cycle;Signal;HPM_P1;HPM_P2
2021/10/20 00:01:19;;;;;;;26.15;11.43;;;;;;;13.97;94.52;100977.66;5025819;28;20029;-68
2021/10/20 00:03:45;;;;;;;28.08;11.80;;;;;;;13.94;94.75;100975.03;5022626;28;20038;-69
2021/10/20 00:06:10;;;;;;;25.65;11.98;;;;;;;13.92;94.92;100983.03;5013582;28;20033;-70
2021/10/20 00:08:36;;;;;;;28.33;12.20;;;;;;;14.03;93.39;100971.44;5013898;28;20033;-70
2021/10/20 00:11:01;;;;;;;25.50;11.18;;;;;;;14.04;93.02;100967.88;5022775;28;20477;-70
2021/10/20 00:13:27;;;;;;;24.75;11.32;;;;;;;14.01;93.18;100978.50;5024594;28;20036;-67
2021/10/20 00:15:53;;;;;;;26.38;11.32;;;;;;;14.02;92.55;100969.66;5013643;28;20556;-68
2021/10/20 00:18:19;;;;;;;25.25;11.00;;;;;;;14.07;91.21;100960.75;5013445;28;20025;-69
2021/10/20 00:20:44;;;;;;;27.00;11.55;;;;;;;14.02;92.34;100959.03;5024330;28;20029;-70
2021/10/20 00:23:12;;;;;;;26.23;11.50;;;;;;;14.11;90.75;100959.84;5022806;28;20030;-70
2021/10/20 00:25:40;;;;;;;25.27;10.85;;;;;;;14.11;90.72;100948.31;5023662;28;20037;-70
2021/10/20 00:28:06;;;;;;;25.70;11.20;;;;;;;14.06;91.16;100958.09;5023304;28;20075;-67
2021/10/20 00:30:32;;;;;;;24.52;10.85;;;;;;;13.98;92.22;100958.19;5013430;28;20030;-71
2021/10/20 00:32:58;;;;;;;26.35;11.63;;;;;;;14.02;91.79;100948.41;5013280;28;20041;-69
2021/10/20 00:35:23;;;;;;;24.88;11.15;;;;;;;14.07;91.04;100942.16;5021223;28;20038;-68
2021/10/20 00:37:48;;;;;;;25.63;11.07;;;;;;;14.05;90.70;100935.06;5025221;28;20041;-71
2021/10/20 00:40:14;;;;;;;25.83;11.35;;;;;;;14.01;91.33;100936.91;5021793;28;20488;-68
2021/10/20 00:42:42;;;;;;;25.73;10.95;;;;;;;14.00;90.73;100934.25;5023753;28;20022;-70
2021/10/20 00:45:08;;;;;;;26.13;11.20;;;;;;;13.98;91.48;100926.28;5022995;28;20404;-70
2021/10/20 00:47:35;;;;;;;25.33;10.93;;;;;;;13.94;91.79;100920.09;5012962;28;20112;-70
2021/10/20 00:50:00;;;;;;;24.73;11.60;;;;;;;13.91;92.41;100921.91;5022068;28;20029;-68
2021/10/20 00:52:26;;;;;;;26.23;11.07;;;;;;;13.90;91.85;100914.84;5024366;28;20022;-70
2021/10/20 00:54:54;;;;;;;25.58;11.15;;;;;;;13.85;92.85;100920.19;5021397;28;20033;-70
2021/10/20 00:57:22;;;;;;;25.73;10.90;;;;;;;13.85;92.54;100912.22;5020907;28;20430;-69
2021/10/20 00:59:50;;;;;;;27.42;11.38;;;;;;;13.82;93.11;100916.66;5017215;28;20070;-69
2021/10/20 01:02:15;;;;;;;25.00;10.95;;;;;;;13.86;92.05;100902.47;5023956;28;20124;-70
2021/10/20 01:04:41;;;;;;;28.27;11.45;;;;;;;13.94;91.17;100900.63;5021802;28;20120;-70
2021/10/20 01:07:07;;;;;;;25.27;10.88;;;;;;;13.97;90.60;100887.31;5013264;28;20040;-70
2021/10/20 01:09:33;;;;;;;26.38;10.77;;;;;;;13.93;90.71;100875.81;5022373;28;20030;-65
2021/10/20 01:11:59;;;;;;;26.10;10.90;;;;;;;13.95;91.01;100889.13;5023990;28;20029;-63
2021/10/20 01:14:27;;;;;;;25.40;10.98;;;;;;;13.89;91.65;100884.72;5021492;28;20025;-64
2021/10/20 01:16:53;;;;;;;25.63;10.52;;;;;;;13.87;91.70;100894.47;5024151;28;20025;-65
2021/10/20 01:19:19;;;;;;;26.92;10.90;;;;;;;13.86;91.17;100868.81;5024872;28;20032;-64
2021/10/20 01:21:44;;;;;;;26.00;11.48;;;;;;;13.86;91.44;100882.09;5027944;28;20350;-65
2021/10/20 01:24:09;;;;;;;26.58;11.30;;;;;;;13.81;91.22;100873.28;5026000;28;20091;-63
2021/10/20 01:26:35;;;;;;;27.15;11.07;;;;;;;13.85;91.33;100867.06;5026458;28;20033;-65
2021/10/20 01:29:01;;;;;;;25.08;10.98;;;;;;;13.78;91.38;100866.22;5027242;28;20032;-65
2021/10/20 01:31:26;;;;;;;25.60;11.10;;;;;;;13.81;91.52;100865.31;5016780;28;20076;-65
2021/10/20 01:33:51;;;;;;;25.77;11.13;;;;;;;13.80;91.74;100860.88;5016456;28;20095;-63
2021/10/20 01:36:17;;;;;;;25.10;11.10;;;;;;;13.83;91.51;100858.19;5027869;28;20028;-64
2021/10/20 01:38:42;;;;;;;25.52;11.43;;;;;;;13.83;91.52;100839.59;5025710;28;20037;-64
2021/10/20 01:41:08;;;;;;;24.92;10.48;;;;;;;13.85;90.66;100856.41;5026635;28;20129;-65
2021/10/20 01:43:45;;;;;;;26.65;10.88;;;;;;;13.91;90.93;100840.41;5026513;28;20456;-64
2021/10/20 01:46:12;;;;;;;26.38;11.38;;;;;;;13.90;89.94;100843.97;5026533;28;20026;-65
2021/10/20 01:48:37;;;;;;;28.05;11.30;;;;;;;13.86;90.59;100844.91;5025952;28;20140;-65
2021/10/20 01:51:03;;;;;;;24.80;10.50;;;;;;;14.00;89.06;100838.56;5025566;28;20030;-64
2021/10/20 01:53:28;;;;;;;25.83;10.90;;;;;;;13.96;89.84;100837.72;5027139;28;20020;-64
2021/10/20 01:55:54;;;;;;;25.67;10.73;;;;;;;13.97;89.79;100833.28;5024610;28;20033;-65
2021/10/20 01:58:19;;;;;;;24.50;11.00;;;;;;;14.00;89.60;100834.13;5019886;28;20038;-65
2021/10/20 02:00:45;;;;;;;27.20;10.88;;;;;;;14.00;89.27;100826.16;5027235;28;20052;-65
2021/10/20 02:03:11;;;;;;;27.52;11.13;;;;;;;14.06;88.46;100822.56;5025504;28;20407;-64
2021/10/20 02:05:36;;;;;;;27.98;11.50;;;;;;;14.01;89.77;100816.41;5025481;28;20022;-63
2021/10/20 02:08:03;;;;;;;25.52;11.20;;;;;;;14.01;89.60;100808.41;5026561;28;20183;-63
2021/10/20 02:10:28;;;;;;;24.30;10.48;;;;;;;14.01;89.64;100811.97;5024987;28;20034;-63
2021/10/20 02:12:54;;;;;;;25.27;10.98;;;;;;;14.06;89.21;100811.94;5027350;28;20415;-62
2021/10/20 02:15:19;;;;;;;26.52;10.98;;;;;;;14.08;88.56;100807.47;5019859;28;20029;-64
2021/10/20 02:17:44;;;;;;;26.45;11.23;;;;;;;14.17;87.58;100804.72;5016117;28;20022;-64
2021/10/20 02:20:12;;;;;;;27.13;10.73;;;;;;;14.18;88.30;100810.91;5025793;28;20026;-62
2021/10/20 02:22:39;;;;;;;27.52;11.05;;;;;;;14.16;88.24;100804.75;5025574;28;20025;-64
2021/10/20 02:25:06;;;;;;;24.98;10.45;;;;;;;14.23;87.56;100804.66;5025144;28;20040;-64
2021/10/20 02:27:31;;;;;;;25.73;11.07;;;;;;;14.24;87.83;100814.41;5026418;28;20056;-63
2021/10/20 02:29:56;;;;;;;26.10;11.07;;;;;;;14.26;87.43;100796.63;5022701;28;20049;-63
2021/10/20 02:32:22;;;;;;;25.67;10.82;;;;;;;14.21;88.44;100790.50;5027129;28;20366;-62
2021/10/20 02:34:47;;;;;;;26.85;11.55;;;;;;;14.11;89.02;100796.78;5023752;28;20017;-63
2021/10/20 02:37:13;;;;;;;27.63;10.73;;;;;;;14.19;88.36;100794.94;5026013;28;20030;-64
2021/10/20 02:39:38;;;;;;;24.63;10.48;;;;;;;14.22;87.56;100778.94;5025253;28;20029;-64
2021/10/20 02:42:04;;;;;;;26.85;11.20;;;;;;;14.20;88.06;100790.50;5015203;28;20026;-64
2021/10/20 02:44:29;;;;;;;27.60;11.40;;;;;;;14.18;87.75;100779.88;5015293;28;20030;-64
2021/10/20 02:46:54;;;;;;;25.48;11.02;;;;;;;14.21;87.72;100785.19;5015353;28;20108;-63
2021/10/20 02:49:20;;;;;;;25.80;10.93;;;;;;;14.19;88.20;100775.47;5023219;28;20029;-64
2021/10/20 02:51:45;;;;;;;26.50;11.32;;;;;;;14.21;87.74;100769.25;5026051;28;20028;-62
2021/10/20 02:54:10;;;;;;;25.77;11.23;;;;;;;14.17;88.51;100778.16;5024681;28;20040;-64
2021/10/20 02:56:36;;;;;;;27.58;11.80;;;;;;;14.14;88.57;100772.88;5014879;28;20465;-62
2021/10/20 02:59:01;;;;;;;26.23;11.38;;;;;;;14.19;88.19;100773.69;5014877;28;20580;-64
2021/10/20 03:01:27;;;;;;;26.48;11.48;;;;;;;14.17;88.37;100777.25;5023225;28;20584;-64
2021/10/20 03:03:52;;;;;;;25.75;11.52;;;;;;;14.17;88.34;100778.16;5026530;28;20029;-64
2021/10/20 03:06:17;;;;;;;26.25;11.02;;;;;;;14.16;88.00;100776.38;5023328;28;20030;-63
2021/10/20 03:08:43;;;;;;;28.85;12.05;;;;;;;14.11;89.11;100756.91;5014856;28;20026;-63
2021/10/20 03:11:09;;;;;;;27.90;11.85;;;;;;;14.12;89.15;100748.06;5014917;28;20472;-64
2021/10/20 03:13:34;;;;;;;26.95;12.15;;;;;;;14.04;90.15;100749.94;5023973;28;20030;-64
2021/10/20 03:15:59;;;;;;;25.73;11.40;;;;;;;14.06;89.52;100741.03;5025669;28;20025;-64
2021/10/20 03:18:25;;;;;;;26.70;11.52;;;;;;;14.13;89.03;100744.50;5023203;28;20025;-63
2021/10/20 03:20:50;;;;;;;28.33;12.23;;;;;;;14.15;89.45;100741.84;5026102;28;20030;-68
2021/10/20 03:23:15;;;;;;;25.30;11.10;;;;;;;14.16;88.84;100746.25;5022979;28;20137;-70
2021/10/20 03:25:41;;;;;;;27.10;12.02;;;;;;;14.18;88.57;100752.44;5014471;28;20030;-69
2021/10/20 03:28:06;;;;;;;27.95;12.15;;;;;;;14.11;89.54;100748.94;5024051;28;20018;-67
2021/10/20 03:30:31;;;;;;;27.77;12.52;;;;;;;14.13;89.44;100739.19;5025331;28;20108;-67
2021/10/20 03:32:57;;;;;;;27.50;12.00;;;;;;;14.11;89.31;100736.56;5022772;28;20055;-69
2021/10/20 03:35:22;;;;;;;27.75;11.93;;;;;;;14.10;89.87;100749.88;5025786;28;20527;-69
2021/10/20 03:37:48;;;;;;;26.52;12.18;;;;;;;14.11;89.84;100741.88;5022643;28;20036;-69
2021/10/20 03:40:14;;;;;;;26.55;12.27;;;;;;;14.18;89.15;100749.78;5014216;28;20049;-69
2021/10/20 03:42:39;;;;;;;26.23;12.05;;;;;;;14.20;89.39;100738.22;5024170;28;20026;-67
2021/10/20 03:45:06;;;;;;;26.65;12.35;;;;;;;14.19;89.18;100728.47;5024164;28;20036;-68
2021/10/20 03:47:31;;;;;;;27.17;12.90;;;;;;;14.13;89.92;100728.56;5023138;28;20537;-69
2021/10/20 03:49:57;;;;;;;28.85;12.38;;;;;;;14.10;90.39;100736.59;5025389;28;20104;-69
2021/10/20 03:52:22;;;;;;;27.80;12.63;;;;;;;14.10;90.48;100723.28;5022548;28;20057;-69
2021/10/20 03:54:48;;;;;;;26.83;11.88;;;;;;;14.16;90.15;100728.53;5024865;28;20416;-68
2021/10/20 03:57:14;;;;;;;28.75;12.35;;;;;;;14.19;89.49;100727.63;5022878;28;20036;-69
2021/10/20 03:59:41;;;;;;;30.75;12.60;;;;;;;14.21;89.62;100721.38;5024093;28;20469;-68
2021/10/20 04:02:07;;;;;;;27.48;12.65;;;;;;;14.24;90.32;100716.03;5023947;28;20029;-67
2021/10/20 04:04:32;;;;;;;27.52;12.10;;;;;;;14.30;89.16;100720.38;5013641;28;20531;-69
2021/10/20 04:06:57;;;;;;;30.42;12.80;;;;;;;14.30;89.02;100709.75;5022136;28;20037;-64
2021/10/20 04:09:22;;;;;;;27.70;12.52;;;;;;;14.22;89.79;100693.88;5025091;28;20033;-64
2021/10/20 04:11:48;;;;;;;27.45;13.27;;;;;;;14.17;90.20;100687.75;5022449;28;20017;-64
2021/10/20 04:14:13;;;;;;;28.67;12.88;;;;;;;14.26;89.40;100690.28;5013699;28;20469;-64
2021/10/20 04:16:39;;;;;;;27.70;12.80;;;;;;;14.21;90.54;100693.91;5013436;28;20061;-64
2021/10/20 04:19:04;;;;;;;26.15;12.48;;;;;;;14.20;90.33;100679.75;5013662;28;20069;-64
2021/10/20 04:21:30;;;;;;;28.70;12.30;;;;;;;14.21;89.99;100689.47;5013917;28;20114;-62
2021/10/20 04:23:55;;;;;;;26.08;12.52;;;;;;;14.16;90.45;100693.09;5013203;28;20074;-62
2021/10/20 04:26:21;;;;;;;27.25;13.00;;;;;;;14.23;89.69;100677.03;5025139;28;20033;-64
2021/10/20 04:28:46;;;;;;;27.13;12.95;;;;;;;14.14;90.62;100679.84;5022342;28;20381;-64
2021/10/20 04:31:12;;;;;;;28.20;13.45;;;;;;;14.10;91.20;100678.09;5023887;28;20037;-64
2021/10/20 04:33:37;;;;;;;28.63;13.38;;;;;;;14.01;91.84;100668.47;5023271;28;20021;-64
2021/10/20 04:36:03;;;;;;;28.38;13.15;;;;;;;14.02;91.76;100662.22;5022085;28;20069;-64
2021/10/20 04:38:28;;;;;;;30.67;13.55;;;;;;;13.97;92.16;100648.16;5024647;28;20056;-63
2021/10/20 04:40:53;;;;;;;27.85;13.65;;;;;;;13.97;91.80;100653.47;5013429;28;20389;-64
2021/10/20 04:43:19;;;;;;;28.65;13.77;;;;;;;13.95;92.06;100657.94;5024806;28;20503;-66
2021/10/20 04:45:44;;;;;;;29.05;13.55;;;;;;;13.85;92.98;100657.16;5022031;28;20036;-63
2021/10/20 04:48:09;;;;;;;29.02;13.20;;;;;;;13.80;93.57;100656.31;5013188;28;20080;-67
2021/10/20 04:50:35;;;;;;;29.58;13.43;;;;;;;13.83;93.44;100642.13;5022292;28;20028;-68
2021/10/20 04:53:00;;;;;;;28.38;13.73;;;;;;;13.75;94.00;100623.63;5023334;28;20021;-68
2021/10/20 04:55:26;;;;;;;29.83;14.68;;;;;;;13.65;95.91;100621.97;5021277;28;20030;-69
2021/10/20 04:57:53;;;;;;;34.05;14.98;;;;;;;13.59;96.09;100620.28;5024210;28;20037;-70
2021/10/20 05:00:21;;;;;;;31.00;14.88;;;;;;;13.59;95.57;100620.28;5021363;28;20108;-67
2021/10/20 05:02:47;;;;;;;30.35;14.85;;;;;;;13.59;95.57;100604.34;5024085;28;20396;-69
2021/10/20 05:05:13;;;;;;;27.75;14.57;;;;;;;13.53;96.61;100607.94;5022128;28;20025;-69
2021/10/20 05:08:04;;;;;;;31.13;15.23;;;;;;;13.49;97.17;100616.84;5022640;28;20052;-67
2021/10/20 05:10:30;;;;;;;32.70;14.70;;;;;;;13.46;96.76;100613.34;5016513;28;20401;-70
2021/10/20 05:12:56;;;;;;;31.58;14.55;;;;;;;13.51;96.35;100617.69;5024621;28;20025;-70
2021/10/20 05:15:22;;;;;;;29.65;14.52;;;;;;;13.58;95.38;100616.72;5017088;28;20084;-70
2021/10/20 05:17:47;;;;;;;30.58;14.38;;;;;;;13.62;94.84;100611.41;5023797;28;20025;-68
2021/10/20 05:20:16;;;;;;;30.27;14.90;;;;;;;13.60;95.41;100601.66;5012265;28;20029;-66
2021/10/20 05:22:42;;;;;;;28.85;14.20;;;;;;;13.64;94.46;100604.28;5020379;28;20060;-67
2021/10/20 05:25:09;;;;;;;30.95;14.90;;;;;;;13.63;94.91;100586.56;5022449;28;20978;-65
2021/10/20 05:27:36;;;;;;;28.20;14.45;;;;;;;13.63;94.95;100576.84;5016605;28;20088;-66
2021/10/20 05:30:01;;;;;;;28.30;14.05;;;;;;;13.64;94.63;100586.56;5020123;28;20053;-67
2021/10/20 05:32:28;;;;;;;30.40;13.90;;;;;;;13.66;94.38;100581.22;5020427;28;20469;-66
2021/10/20 05:34:54;;;;;;;29.50;13.40;;;;;;;13.72;93.76;100586.47;5018793;28;20026;-66
2021/10/20 05:37:20;;;;;;;29.42;14.40;;;;;;;13.69;94.21;100592.69;5019209;28;20080;-67
2021/10/20 05:39:48;;;;;;;29.10;14.18;;;;;;;13.73;94.09;100596.19;5016850;28;20049;-65
2021/10/20 05:42:13;;;;;;;30.02;13.77;;;;;;;13.80;93.46;100597.00;5017626;28;20084;-66
2021/10/20 05:44:39;;;;;;;29.55;13.90;;;;;;;13.80;93.74;100581.06;5020871;28;20026;-67
2021/10/20 05:47:04;;;;;;;29.50;14.20;;;;;;;13.78;93.40;100589.91;5019943;28;20133;-67
2021/10/20 05:49:29;;;;;;;30.85;14.48;;;;;;;13.85;93.48;100580.09;5019295;28;20117;-66
2021/10/20 05:51:55;;;;;;;29.55;14.10;;;;;;;13.93;91.77;100548.97;5018783;28;20447;-66
2021/10/20 05:54:20;;;;;;;31.35;14.35;;;;;;;13.90;93.00;100546.38;5021271;28;20037;-67
2021/10/20 05:56:45;;;;;;;30.05;13.98;;;;;;;13.85;93.21;100520.75;5017520;28;20029;-67
2021/10/20 05:59:11;;;;;;;31.85;15.23;;;;;;;13.84;93.88;100533.16;5020143;28;20057;-66
2021/10/20 06:01:36;;;;;;;31.88;14.80;;;;;;;13.82;93.89;100524.34;5018462;28;20120;-64
2021/10/20 06:04:03;;;;;;;31.10;15.23;;;;;;;13.85;94.08;100515.44;5018495;28;20026;-65
2021/10/20 06:06:28;;;;;;;32.45;15.35;;;;;;;13.90;93.39;100513.59;5024265;28;20431;-66
2021/10/20 06:08:54;;;;;;;29.33;14.38;;;;;;;13.94;93.26;100518.84;5020160;28;20033;-68
2021/10/20 06:11:20;;;;;;;32.15;15.23;;;;;;;13.95;93.49;100520.63;5022021;28;20038;-66
2021/10/20 06:13:45;;;;;;;33.78;14.82;;;;;;;13.98;93.36;100533.00;5021763;28;20071;-66
2021/10/20 06:16:11;;;;;;;29.63;14.23;;;;;;;14.09;92.62;100536.34;5020546;28;20030;-68
2021/10/20 06:18:37;;;;;;;31.05;14.77;;;;;;;14.13;92.99;100537.19;5021993;28;20034;-67
2021/10/20 06:21:03;;;;;;;31.83;14.77;;;;;;;14.13;92.19;100523.91;5023799;28;20033;-67
2021/10/20 06:23:29;;;;;;;31.35;15.00;;;;;;;14.20;91.99;100516.69;5021001;28;20036;-66
2021/10/20 06:25:54;;;;;;;29.13;14.30;;;;;;;14.20;92.34;100533.53;5020283;28;20037;-66
2021/10/20 06:28:20;;;;;;;30.00;14.20;;;;;;;14.27;91.32;100521.00;5020959;28;20040;-67
2021/10/20 06:30:45;;;;;;;31.33;15.45;;;;;;;14.18;93.04;100527.34;5020036;28;20022;-66
2021/10/20 06:33:10;;;;;;;31.00;14.70;;;;;;;14.23;91.94;100514.00;5023032;28;20032;-67
2021/10/20 06:35:35;;;;;;;28.20;14.25;;;;;;;14.24;91.93;100523.72;5020051;28;20108;-66
2021/10/20 06:38:01;;;;;;;31.50;15.05;;;;;;;14.27;92.04;100513.03;5021066;28;20113;-67
2021/10/20 06:40:26;;;;;;;29.20;15.10;;;;;;;14.29;91.53;100517.44;5020673;28;20117;-66
2021/10/20 06:42:52;;;;;;;29.30;14.73;;;;;;;14.24;92.72;100513.09;5020052;28;20099;-67
2021/10/20 06:45:17;;;;;;;31.83;15.60;;;;;;;14.26;92.59;100517.47;5023188;28;20021;-66
2021/10/20 06:47:43;;;;;;;31.65;15.02;;;;;;;14.27;92.51;100529.88;5021819;28;20036;-65
2021/10/20 06:50:08;;;;;;;28.13;14.95;;;;;;;14.29;92.87;100535.16;5023935;28;20030;-66
2021/10/20 06:52:34;;;;;;;30.20;14.88;;;;;;;14.32;92.36;100531.59;5022786;28;20030;-66
2021/10/20 06:54:59;;;;;;;28.65;14.73;;;;;;;14.28;92.77;100542.28;5025381;28;20018;-67
2021/10/20 06:57:24;;;;;;;28.42;14.30;;;;;;;14.34;92.43;100557.22;5029308;28;20053;-65
2021/10/20 06:59:50;;;;;;;29.60;14.50;;;;;;;14.38;92.05;100558.06;5027275;28;20033;-66
2021/10/20 07:02:15;;;;;;;31.80;14.93;;;;;;;14.36;92.49;100549.22;5025395;28;20022;-66
2021/10/20 07:04:40;;;;;;;29.95;15.02;;;;;;;14.37;92.60;100556.31;5029379;28;20022;-67
2021/10/20 07:07:10;;;;;;;29.08;14.75;;;;;;;14.34;93.01;100551.03;5025116;28;20057;-67
2021/10/20 07:09:35;;;;;;;31.13;15.13;;;;;;;14.34;93.59;100540.41;5026280;28;20124;-66
2021/10/20 07:12:01;;;;;;;31.10;14.95;;;;;;;14.36;93.35;100512.91;5022937;28;20025;-66
2021/10/20 07:14:26;;;;;;;32.08;15.13;;;;;;;14.37;93.50;100519.97;5023672;28;20037;-67
2021/10/20 07:16:51;;;;;;;31.63;14.98;;;;;;;14.39;93.88;100496.03;5025150;28;20022;-66
2021/10/20 07:19:17;;;;;;;34.53;17.42;;;;;;;14.23;100.00;100482.97;5024656;28;20021;-66
2021/10/20 07:21:42;;;;;;;35.30;17.55;;;;;;;13.93;100.00;100423.22;5023483;28;20030;-66
2021/10/20 07:24:08;;;;;;;32.22;16.48;;;;;;;13.65;100.00;100459.97;5024487;28;20037;-65
2021/10/20 07:26:33;;;;;;;33.63;17.92;;;;;;;13.42;100.00;100459.38;5024601;28;20057;-66
2021/10/20 07:28:59;;;;;;;34.65;18.17;;;;;;;13.30;100.00;100442.72;5026340;28;20374;-67
2021/10/20 07:31:29;;;;;;;34.47;18.08;;;;;;;13.18;100.00;100441.97;5026013;28;20388;-65
2021/10/20 07:33:56;;;;;;;35.15;19.70;;;;;;;13.16;100.00;100425.16;5024551;28;20022;-67
2021/10/20 07:36:21;;;;;;;34.25;19.17;;;;;;;13.18;100.00;100428.69;5022049;28;20022;-64
2021/10/20 07:38:46;;;;;;;36.92;20.10;;;;;;;13.11;100.00;100416.41;5025689;28;20037;-65
2021/10/20 07:41:12;;;;;;;37.75;20.85;;;;;;;13.07;100.00;100390.81;5020699;28;20088;-64
2021/10/20 07:43:37;;;;;;;36.22;20.90;;;;;;;13.11;100.00;100383.69;5023415;28;20033;-64
2021/10/20 07:46:03;;;;;;;37.28;21.58;;;;;;;13.10;100.00;100360.72;5018787;28;20025;-64
2021/10/20 07:48:29;;;;;;;40.47;23.10;;;;;;;13.05;100.00;100350.16;5016855;28;20074;-63
2021/10/20 07:50:55;;;;;;;43.42;23.55;;;;;;;13.01;100.00;100335.19;5017438;28;20416;-63
2021/10/20 07:53:21;;;;;;;38.58;23.05;;;;;;;13.04;100.00;100340.44;5019483;28;20053;-63
2021/10/20 07:55:47;;;;;;;40.10;22.77;;;;;;;13.08;100.00;100358.06;5019012;28;20109;-63
2021/10/20 07:58:12;;;;;;;40.22;22.92;;;;;;;13.17;100.00;100357.94;5017515;28;20050;-65
2021/10/20 08:00:38;;;;;;;37.55;21.58;;;;;;;13.17;100.00;100338.50;5016739;28;20045;-64
2021/10/20 08:03:03;;;;;;;41.22;22.35;;;;;;;13.15;100.00;100325.25;5020308;28;20018;-64
2021/10/20 08:05:29;;;;;;;40.28;23.08;;;;;;;13.23;100.00;100325.13;5018073;28;20461;-65
2021/10/20 08:07:54;;;;;;;39.08;22.00;;;;;;;13.26;100.00;100322.41;5020305;28;20034;-64
2021/10/20 08:10:25;;;;;;;40.53;23.42;;;;;;;13.24;100.00;100340.16;5025357;28;20053;-64
2021/10/20 08:12:51;;;;;;;40.30;23.23;;;;;;;13.22;100.00;100333.97;5021350;28;20461;-65
2021/10/20 08:15:17;;;;;;;39.83;22.33;;;;;;;13.27;100.00;100345.41;5025124;28;20041;-65
2021/10/20 08:17:44;;;;;;;41.80;23.23;;;;;;;13.29;100.00;100342.75;5021731;28;20485;-65
2021/10/20 08:20:12;;;;;;;37.00;21.55;;;;;;;13.34;100.00;100348.84;5024345;28;20384;-65
2021/10/20 08:22:38;;;;;;;40.78;22.50;;;;;;;13.38;100.00;100340.88;5022519;28;20036;-64
2021/10/20 08:25:08;;;;;;;39.63;23.73;;;;;;;13.41;100.00;100347.88;5023306;28;20026;-64
2021/10/20 08:27:33;;;;;;;39.70;22.05;;;;;;;13.52;100.00;100345.94;5022447;28;20025;-68
2021/10/20 08:29:59;;;;;;;38.22;20.25;;;;;;;13.60;100.00;100348.47;5013963;28;20029;-66
2021/10/20 08:32:25;;;;;;;36.03;19.55;;;;;;;13.69;100.00;100355.41;5017143;28;20037;-66
2021/10/20 08:34:51;;;;;;;38.28;21.40;;;;;;;13.67;100.00;100351.91;5020404;28;20029;-67
2021/10/20 08:37:17;;;;;;;39.17;20.73;;;;;;;13.72;100.00;100345.63;5018235;28;20484;-66
2021/10/20 08:39:43;;;;;;;37.40;20.98;;;;;;;13.72;100.00;100356.25;5021744;28;20388;-66
2021/10/20 08:42:08;;;;;;;36.63;19.65;;;;;;;13.80;100.00;100356.13;5016801;28;20029;-65
2021/10/20 08:44:34;;;;;;;35.50;19.30;;;;;;;13.84;100.00;100363.13;5022669;28;20022;-66
2021/10/20 08:46:59;;;;;;;41.38;20.00;;;;;;;13.90;100.00;100364.81;5017166;28;20033;-66
2021/10/20 08:49:25;;;;;;;35.78;19.08;;;;;;;14.03;100.00;100387.63;5021993;28;20032;-65
2021/10/20 08:51:51;;;;;;;36.42;20.30;;;;;;;14.17;100.00;100379.41;5021459;28;20055;-66
2021/10/20 08:54:18;;;;;;;35.58;18.73;;;;;;;14.36;100.00;100368.41;5020499;28;20101;-66
2021/10/20 08:56:45;;;;;;;34.25;18.38;;;;;;;14.52;100.00;100364.59;5023014;28;20026;-65
2021/10/20 08:59:12;;;;;;;33.03;18.52;;;;;;;14.76;100.00;100370.34;5021222;28;20063;-66
2021/10/20 09:01:38;;;;;;;34.33;17.00;;;;;;;14.90;100.00;100370.94;5016819;28;20412;-64
2021/10/20 09:04:05;;;;;;;34.08;17.50;;;;;;;15.03;100.00;100350.28;5017927;28;20040;-64
2021/10/20 09:06:31;;;;;;;33.45;17.63;;;;;;;15.13;100.00;100366.88;5018583;28;20083;-64
2021/10/20 09:08:56;;;;;;;32.13;17.00;;;;;;;15.22;100.00;100366.72;5021008;28;20029;-64
2021/10/20 09:11:33;;;;;;;30.98;16.48;;;;;;;15.30;100.00;100359.44;5016265;28;20435;-64
2021/10/20 09:14:11;;;;;;;30.75;15.77;;;;;;;15.40;100.00;100369.88;5019253;28;20391;-64
2021/10/20 09:16:38;;;;;;;31.92;16.38;;;;;;;15.52;100.00;100350.91;5017745;28;20112;-64
2021/10/20 09:19:31;;;;;;;30.83;16.17;;;;;;;15.73;98.57;100343.31;5019586;28;20046;-65
2021/10/20 09:22:01;;;;;;;30.67;15.30;;;;;;;15.91;94.13;100348.22;5017571;28;20057;-66
2021/10/20 09:24:35;;;;;;;30.60;16.45;;;;;;;16.00;94.79;100341.78;5022499;28;20032;-65
2021/10/20 09:27:02;;;;;;;30.05;15.80;;;;;;;16.11;91.73;100346.84;5021409;28;20048;-65
2021/10/20 09:29:31;;;;;;;29.77;15.18;;;;;;;16.28;90.94;100360.59;5020581;28;20033;-65
2021/10/20 09:31:56;;;;;;;32.15;16.27;;;;;;;16.47;90.19;100344.06;5024064;28;20100;-65
2021/10/20 09:34:32;;;;;;;31.17;15.77;;;;;;;16.76;88.88;100339.69;5020583;28;20172;-65
2021/10/20 09:36:59;;;;;;;30.83;15.73;;;;;;;16.86;87.26;100352.75;5016723;28;20441;-65
2021/10/20 09:39:24;;;;;;;30.75;15.73;;;;;;;16.90;88.14;100345.53;5022117;28;20059;-65
2021/10/20 09:41:54;;;;;;;31.15;15.70;;;;;;;17.01;86.85;100348.78;5029243;28;20180;-67
2021/10/20 09:44:20;;;;;;;31.20;15.60;;;;;;;17.11;84.17;100345.81;5029673;28;20026;-66
2021/10/20 09:46:47;;;;;;;28.90;14.60;;;;;;;17.36;83.17;100354.81;5029272;28;20040;-68
2021/10/20 09:49:18;;;;;;;28.42;14.63;;;;;;;17.53;84.50;100354.28;5027633;28;20504;-65
2021/10/20 09:51:44;;;;;;;30.42;15.68;;;;;;;17.37;82.74;100329.88;5025246;28;20040;-68
2021/10/20 09:54:26;;;;;;;27.92;13.63;;;;;;;17.51;81.95;100334.75;5027587;28;20025;-65
2021/10/20 09:56:56;;;;;;;30.20;14.60;;;;;;;17.58;80.60;100336.28;5026038;28;20428;-65
2021/10/20 09:59:22;;;;;;;29.83;15.27;;;;;;;17.34;81.93;100345.97;5025705;28;20081;-68
2021/10/20 10:01:48;;;;;;;30.17;15.50;;;;;;;16.97;84.04;100325.75;5025803;28;20108;-65
2021/10/20 10:04:14;;;;;;;32.42;15.52;;;;;;;16.90;83.99;100332.19;5026635;28;20032;-68
2021/10/20 10:06:40;;;;;;;29.98;15.68;;;;;;;16.72;85.37;100353.13;5024234;28;20029;-65
2021/10/20 10:09:07;;;;;;;29.60;15.07;;;;;;;16.68;85.43;100350.59;5027637;28;20045;-68
2021/10/20 10:11:33;;;;;;;29.10;14.15;;;;;;;16.68;84.19;100330.13;5024204;28;20038;-67
2021/10/20 10:14:02;;;;;;;30.73;15.25;;;;;;;16.70;84.30;100317.63;5026628;28;20432;-68
2021/10/20 10:16:30;;;;;;;31.50;15.50;;;;;;;16.62;84.10;100351.66;5024749;28;20018;-65
2021/10/20 10:18:58;;;;;;;29.63;14.95;;;;;;;16.54;87.18;100335.88;5018472;28;20069;-65
2021/10/20 10:21:34;;;;;;;28.85;14.40;;;;;;;16.57;85.66;100329.53;5021512;28;20022;-64
2021/10/20 10:24:02;;;;;;;29.83;14.93;;;;;;;16.62;84.95;100335.63;5017989;28;20083;-65
2021/10/20 10:26:28;;;;;;;28.55;15.02;;;;;;;16.68;83.74;100369.28;5022275;28;20033;-64
2021/10/20 10:29:08;;;;;;;30.25;15.57;;;;;;;16.67;85.62;100335.50;5019380;28;20026;-64
2021/10/20 10:31:36;;;;;;;30.15;15.45;;;;;;;16.61;85.67;100325.00;5022465;28;20018;-65
2021/10/20 10:34:02;;;;;;;29.50;14.98;;;;;;;16.57;85.47;100340.22;5017018;28;20026;-64
2021/10/20 10:36:28;;;;;;;30.02;14.98;;;;;;;16.59;85.79;100325.06;5017835;28;20030;-65
2021/10/20 10:38:59;;;;;;;30.77;15.48;;;;;;;16.56;85.19;100333.16;5021002;28;20384;-64
2021/10/20 10:41:41;;;;;;;30.92;15.13;;;;;;;16.55;85.39;100321.59;5021624;28;20033;-64
2021/10/20 10:44:09;;;;;;;29.83;15.25;;;;;;;16.52;85.56;100312.81;5024468;28;20028;-64
2021/10/20 10:46:40;;;;;;;29.83;15.40;;;;;;;16.53;85.79;100328.78;5024521;28;20080;-64
2021/10/20 10:49:22;;;;;;;32.45;15.65;;;;;;;16.53;85.61;100317.25;5019650;28;20018;-63
2021/10/20 10:52:06;;;;;;;31.38;15.57;;;;;;;16.54;86.05;100330.53;5021017;28;20032;-64
2021/10/20 10:54:39;;;;;;;28.80;14.52;;;;;;;16.49;86.27;100315.56;5017806;28;20092;-62
2021/10/20 10:57:15;;;;;;;31.85;15.13;;;;;;;16.49;86.06;100304.91;5019117;28;20103;-63
2021/10/20 11:00:23;;;;;;;31.17;14.88;;;;;;;16.62;86.10;100292.94;5021627;28;20383;-62
2021/10/20 11:02:51;;;;;;;31.63;15.30;;;;;;;16.81;84.42;100300.41;4997699;28;20042;-62
2021/10/20 11:05:20;;;;;;;30.70;14.38;;;;;;;17.06;82.54;100292.56;4997184;28;20033;-60